Terminal Aerodrome Forecast
Issued by NWS

Home | Current Version | Previous Version | Text Only | Print | Product List | Glossary On
Versions: 1 2 3 4 5 6 7 8 9 10 11 12 13 14 15 16 17 18 19 20
000
FTUS43 KDLH 081131
TAFBRD
TAF
KBRD 081131Z 0812/0912 32012G20KT P6SM BKN025 OVC040
      TEMPO 0812/0815 5SM -SN OVC015
     FM081500 32014G20KT P6SM VCSH OVC015
     FM081800 32014G20KT P6SM OVC015
     FM090100 30012KT P6SM OVC025=

USA.gov is the U.S. government's official web portal to all federal, state and local government web resources and services.